Data for 12/29/2012

Time Sea-Level Adjusted Pressure Absolute Pressure Temperature Relative Humidity Dew Point   
(mb) (inHg) (mb) (inHg) (C) (F) (%) (C) (F)
00:05 1019 30.09 848 25.04 -8.7 16.3 65 -14.2 6.4
00:10 1019 30.09 849 25.07 -8.6 16.4 64 -14.2 6.4
00:15 1019 30.09 849 25.07 -8.6 16.6 64 -14.2 6.4
00:20 1019 30.09 849 25.07 -8.5 16.8 64 -14.1 6.7
00:25 1019 30.09 849 25.07 -8.4 16.9 65 -13.9 6.9
00:30 1019 30.09 849 25.07 -8.5 16.8 66 -13.8 7.2
00:35 1020 30.12 849 25.07 -8.5 16.7 67 -13.6 7.6
00:40 1020 30.12 849 25.07 -8.5 16.7 68 -13.5 7.7
00:45 1020 30.12 849 25.07 -8.5 16.7 67 -13.5 7.7
00:50 1020 30.12 849 25.07 -8.5 16.7 66 -13.8 7.2
00:55 1020 30.12 849 25.07 -8.5 16.7 66 -13.8 7.2
01:00 1020 30.12 849 25.07 -8.8 16.3 67 -13.9 7
01:05 1020 30.12 849 25.07 -9 15.9 67 -14 6.7
01:10 1020 30.12 849 25.07 -9.2 15.4 68 -14 6.7
01:15 1020 30.12 849 25.07 -9.2 15.4 69 -14 6.8
01:20 1020 30.12 849 25.07 -9.1 15.7 68 -13.9 7
01:25 1020 30.12 849 25.07 -9 15.8 68 -13.8 7.2
01:30 1020 30.12 849 25.07 -9 15.8 69 -13.8 7.2
01:35 1020 30.12 849 25.07 -8.9 16 69 -13.7 7.4
01:40 1020 30.12 849 25.07 -8.7 16.3 67 -13.9 7
01:45 1020 30.12 849 25.07 -8.6 16.5 66 -13.8 7.1
01:50 1020 30.12 849 25.07 -8.6 16.6 65 -14 6.7
01:55 1020 30.12 849 25.07 -8.8 16.1 68 -13.7 7.3
02:00 1020 30.12 849 25.07 -9 15.9 68 -13.9 7
02:05 1020 30.12 849 25.07 -8.9 16 67 -13.9 7
02:10 1020 30.12 849 25.07 -8.7 16.4 67 -13.7 7.3
02:15 1020 30.12 849 25.07 -8.8 16.2 68 -13.8 7.2
02:20 1020 30.12 849 25.07 -8.8 16.2 69 -13.5 7.8
02:25 1020 30.12 849 25.07 -8.6 16.5 67 -13.7 7.3
02:30 1020 30.12 849 25.07 -8.4 16.9 66 -13.7 7.3
02:35 1020 30.12 849 25.07 -8.4 17 66 -13.6 7.6
02:40 1020 30.12 849 25.07 -8.5 16.7 69 -13.2 8.3
02:45 1020 30.12 849 25.07 -8.6 16.6 66 -13.8 7.2
02:50 1020 30.12 849 25.07 -8.6 16.6 67 -13.7 7.4
02:55 1020 30.12 849 25.07 -8.7 16.4 67 -13.7 7.4
03:00 1020 30.12 849 25.07 -8.8 16.2 67 -13.8 7.2
03:05 1020 30.12 849 25.07 -8.9 16 68 -13.7 7.3
03:10 1020 30.12 849 25.07 -9 15.8 69 -13.7 7.3
03:15 1020 30.12 849 25.07 -9 15.8 68 -13.8 7.1
03:20 1020 30.12 849 25.07 -9.4 15.1 71 -13.8 7.2
03:25 1020 30.12 849 25.07 -9.7 14.6 71 -13.9 7
03:30 1020 30.12 849 25.07 -9.5 15 70 -14 6.8
03:35 1020 30.12 849 25.07 -9.5 14.8 70 -14 6.8
03:40 1020 30.12 849 25.07 -9.5 14.8 70 -14.1 6.7
03:45 1020 30.12 849 25.07 -9.6 14.6 71 -14 6.8
03:50 1020 30.12 849 25.07 -9.8 14.5 71 -14.1 6.7
03:55 1020 30.12 849 25.07 -9.6 14.7 70 -14.1 6.6
04:00 1020 30.12 849 25.07 -9.2 15.4 69 -14 6.8
04:05 1020 30.12 849 25.07 -8.7 16.3 66 -13.9 7
04:10 1020 30.12 849 25.07 -8.7 16.3 68 -13.7 7.4
04:15 1020 30.12 849 25.07 -8.9 16 67 -13.9 7
04:20 1020 30.12 849 25.07 -8.8 16.1 67 -13.9 7
04:25 1020 30.12 849 25.07 -8.9 15.9 68 -13.9 7
04:30 1020 30.12 849 25.07 -9.2 15.4 68 -14.1 6.7
04:35 1020 30.12 849 25.07 -9.5 15 69 -14.2 6.5
04:40 1020 30.12 849 25.07 -9.4 15 69 -14.2 6.5
04:45 1020 30.12 849 25.07 -9.3 15.3 68 -14.2 6.5
04:50 1020 30.12 849 25.07 -9.2 15.4 68 -14.1 6.6
04:55 1020 30.12 849 25.07 -9.2 15.4 68 -14 6.7
05:00 1020 30.12 849 25.07 -9.2 15.4 67 -14.3 6.3
05:05 1020 30.12 849 25.07 -9.1 15.7 67 -14.2 6.5
05:10 1020 30.12 849 25.07 -9 15.9 66 -14.2 6.4
05:15 1020 30.12 849 25.07 -9.3 15.2 68 -14.2 6.4
05:20 1020 30.12 849 25.07 -9.6 14.7 69 -14.2 6.4
05:25 1019 30.09 849 25.07 -9.7 14.6 69 -14.4 6.2
05:30 1019 30.09 849 25.07 -9.8 14.4 69 -14.4 6.1
05:35 1020 30.12 849 25.07 -9.3 15.2 68 -14.2 6.4
05:40 1020 30.12 849 25.07 -8.6 16.5 66 -13.9 6.9
05:45 1020 30.12 849 25.07 -8.5 16.7 66 -13.7 7.3
05:50 1019 30.09 849 25.07 -9.1 15.6 69 -13.9 7.1
05:55 1019 30.09 849 25.07 -9.6 14.7 70 -14.1 6.6
06:00 1019 30.09 849 25.07 -9.6 14.8 70 -14.1 6.6
06:05 1019 30.09 849 25.07 -9.6 14.7 69 -14.2 6.4
06:10 1019 30.09 849 25.07 -9.7 14.5 70 -14.2 6.4
06:15 1019 30.09 849 25.07 -9.9 14.2 71 -14.2 6.4
06:20 1019 30.09 848 25.04 -10.1 13.9 71 -14.4 6
06:25 1019 30.09 848 25.04 -10.5 13.1 73 -14.6 5.8
06:30 1019 30.09 848 25.04 -10.6 12.9 73 -14.5 5.8
06:35 1019 30.09 849 25.07 -10.1 13.8 71 -14.5 6
06:40 1019 30.09 849 25.07 -9.9 14.2 69 -14.4 6
06:45 1019 30.09 848 25.04 -9.8 14.5 69 -14.4 6
06:50 1019 30.09 848 25.04 -10.1 13.8 70 -14.5 5.8
06:55 1019 30.09 848 25.04 -10.6 13 71 -14.8 5.3
07:00 1019 30.09 848 25.04 -10.9 12.4 72 -15 5.1
07:05 1019 30.09 848 25.04 -10.9 12.5 73 -14.9 5.2
07:10 1019 30.09 848 25.04 -10.3 13.4 71 -14.6 5.7
07:15 1019 30.09 848 25.04 -10.2 13.7 70 -14.6 5.7
07:20 1019 30.09 848 25.04 -10.3 13.4 71 -14.6 5.7
07:25 1019 30.09 848 25.04 -10.7 12.8 71 -14.9 5.1
07:30 1019 30.09 848 25.04 -10.6 12.9 70 -15.1 4.9
07:35 1019 30.09 848 25.04 -10.4 13.2 70 -15 5.1
07:40 1019 30.09 848 25.04 -10.4 13.3 70 -14.8 5.3
07:45 1019 30.09 848 25.04 -10.7 12.8 72 -14.8 5.3
07:50 1019 30.09 848 25.04 -10.5 13.1 71 -14.8 5.4
07:55 1019 30.09 848 25.04 -10.3 13.4 70 -14.9 5.2
08:00 1019 30.09 848 25.04 -10.4 13.2 69 -15.1 4.8
08:05 1019 30.09 848 25.04 -10.9 12.4 71 -15.3 4.5
08:10 1019 30.09 848 25.04 -11.1 12 70 -15.5 4.1
08:15 1019 30.09 848 25.04 -11.1 12 71 -15.4 4.3
08:20 1019 30.09 848 25.04 -11.3 11.6 73 -15.3 4.4
08:25 1019 30.09 848 25.04 -10.7 12.8 70 -15.1 4.8
08:30 1019 30.09 848 25.04 -10.7 12.7 70 -15.2 4.6
08:35 1018 30.06 848 25.04 -11 12.2 70 -15.5 4.1
08:40 1018 30.06 848 25.04 -11.3 11.6 70 -15.8 3.6
08:45 1018 30.06 848 25.04 -11.3 11.7 69 -15.8 3.6
08:50 1018 30.06 847 25.01 -11.1 12 69 -15.8 3.6
08:55 1018 30.06 847 25.01 -10.7 12.7 67 -15.7 3.7
09:00 1018 30.06 847 25.01 -10.8 12.7 67 -15.7 3.8
09:05 1018 30.06 847 25.01 -10.8 12.6 67 -15.7 3.7
09:10 1018 30.06 847 25.01 -10.7 12.7 67 -15.7 3.8
09:15 1018 30.06 847 25.01 -10.9 12.3 68 -15.7 3.7
09:20 1018 30.06 848 25.04 -10.8 12.5 66 -16 3.2
09:25 1018 30.06 848 25.04 -10.3 13.5 65 -15.7 3.7
09:30 1018 30.06 848 25.04 -9.9 14.2 62 -15.8 3.6
09:35 1019 30.09 848 25.04 -9.3 15.4 61 -15.5 4.2
09:40 1019 30.09 848 25.04 -10.2 13.7 65 -15.5 4.2
09:45 1019 30.09 848 25.04 -10.7 12.8 69 -15.3 4.4
09:50 1019 30.09 848 25.04 -10.8 12.6 68 -15.5 4
09:55 1019 30.09 848 25.04 -10.6 12.9 68 -15.5 4.2
10:00 1019 30.09 848 25.04 -11 12.3 69 -15.5 4.1
10:05 1019 30.09 848 25.04 -11 12.2 68 -15.7 3.7
10:10 1019 30.09 848 25.04 -10.8 12.6 68 -15.6 4
10:15 1019 30.09 848 25.04 -10.9 12.4 68 -15.7 3.8
10:20 1019 30.09 848 25.04 -10.9 12.3 68 -15.8 3.6
10:25 1019 30.09 848 25.04 -11.2 11.8 69 -15.8 3.6
10:30 1019 30.09 848 25.04 -11 12.1 69 -15.7 3.8
10:35 1019 30.09 848 25.04 -10.8 12.7 68 -15.6 4
10:40 1019 30.09 848 25.04 -10.4 13.3 67 -15.4 4.2
10:45 1019 30.09 848 25.04 -9.8 14.4 64 -15.4 4.2
10:50 1019 30.09 848 25.04 -9.1 15.5 63 -15 4.9
10:55 1019 30.09 848 25.04 -9.1 15.7 64 -14.7 5.6
11:00 1019 30.09 848 25.04 -8.9 16 64 -14.6 5.8
11:05 1019 30.09 848 25.04 -8.7 16.3 64 -14.3 6.2
11:10 1019 30.09 848 25.04 -8.9 16.1 64 -14.4 6
11:15 1019 30.09 848 25.04 -9 15.8 64 -14.6 5.7
11:20 1019 30.09 848 25.04 -8.8 16.2 64 -14.5 5.9
11:25 1019 30.09 848 25.04 -8.8 16.2 64 -14.4 6
11:30 1019 30.09 848 25.04 -8.7 16.4 64 -14.3 6.2
11:35 1019 30.09 848 25.04 -8.9 15.9 66 -14.2 6.4
11:40 1019 30.09 848 25.04 -9 15.9 65 -14.4 6.1
11:45 1019 30.09 848 25.04 -8.6 16.5 64 -14.3 6.2
11:50 1019 30.09 848 25.04 -8.4 16.8 63 -14.3 6.3
11:55 1019 30.09 848 25.04 -7.9 17.8 61 -14.2 6.4
12:00 1019 30.09 848 25.04 -7.5 18.5 59 -14.1 6.6
12:05 1019 30.09 848 25.04 -7 19.3 58 -14 6.9
12:10 1018 30.06 848 25.04 -7 19.4 58 -13.9 6.9
12:15 1018 30.06 848 25.04 -7.1 19.2 59 -13.7 7.3
12:20 1018 30.06 847 25.01 -7 19.4 58 -13.8 7.1
12:25 1018 30.06 847 25.01 -6.8 19.8 57 -13.9 7
12:30 1018 30.06 847 25.01 -6.6 20.2 56 -13.9 6.9
12:35 1018 30.06 847 25.01 -6 21.2 55 -13.7 7.3
12:40 1018 30.06 847 25.01 -6 21.3 55 -13.7 7.3
12:45 1018 30.06 847 25.01 -6 21.3 54 -13.9 7.1
12:50 1018 30.06 847 25.01 -5.7 21.7 54 -13.7 7.4
12:55 1018 30.06 847 25.01 -5.7 21.7 54 -13.6 7.5
13:00 1018 30.06 847 25.01 -5.3 22.4 51 -14 6.8
13:05 1018 30.06 847 25.01 -5.1 22.9 52 -13.6 7.6
13:10 1018 30.06 847 25.01 -5.9 21.4 55 -13.6 7.6
13:15 1018 30.06 847 25.01 -5.3 22.4 52 -13.7 7.3
13:20 1017 30.03 847 25.01 -5.3 22.5 52 -13.6 7.5
13:25 1017 30.03 846 24.98 -5.1 22.8 53 -13.4 8
13:30 1017 30.03 846 24.98 -6 21.2 55 -13.6 7.5
13:35 1017 30.03 846 24.98 -6.6 20.1 56 -13.9 6.9
13:40 1017 30.03 846 24.98 -6.2 20.8 55 -13.9 7
13:45 1017 30.03 846 24.98 -6.2 20.8 54 -14 6.8
13:50 1017 30.03 846 24.98 -5.9 21.4 55 -13.5 7.6
13:55 1017 30.03 846 24.98 -5.4 22.2 51 -14 6.8
14:00 1017 30.03 846 24.98 -5.3 22.4 52 -13.8 7.2
14:05 1017 30.03 846 24.98 -5.7 21.8 52 -14 6.8
14:10 1017 30.03 846 24.98 -5.8 21.6 52 -14.1 6.6
14:15 1017 30.03 846 24.98 -4.8 23.3 51 -13.5 7.6
14:20 1017 30.03 846 24.98 -4.7 23.5 51 -13.4 7.9
14:25 1017 30.03 846 24.98 -4.2 24.5 47 -13.8 7.2
14:30 1017 30.03 846 24.98 -3.4 25.9 45 -13.7 7.4
14:35 1017 30.03 846 24.98 -3.6 25.6 47 -13.3 8.1
14:40 1017 30.03 846 24.98 -4.3 24.2 47 -14 6.9
14:45 1016 30 846 24.98 -4.5 23.8 47 -14.1 6.6
14:50 1016 30 846 24.98 -4.3 24.2 46 -14.2 6.4
14:55 1016 30 845 24.95 -3.8 25.2 46 -13.9 7
15:00 1016 30 845 24.95 -3.6 25.5 47 -13.4 7.9
15:05 1016 30 845 24.95 -3.6 25.6 45 -13.9 7
15:10 1016 30 845 24.95 -2.8 27 44 -13.4 7.9
15:15 1016 30 845 24.95 -3.1 26.4 47 -13 8.5
15:20 1016 30 845 24.95 -3.6 25.5 48 -13.1 8.5
15:25 1016 30 845 24.95 -4.9 23.2 54 -12.9 8.9
15:30 1016 30 845 24.95 -6 21.2 56 -13.3 8
15:35 1016 30 845 24.95 -6.1 21.1 57 -13.3 8
15:40 1016 30 845 24.95 -5.9 21.4 56 -13.3 8
15:45 1016 30 845 24.95 -5.8 21.5 55 -13.4 7.9
15:50 1016 30 845 24.95 -5.6 21.9 54 -13.5 7.7
15:55 1016 30 845 24.95 -5.2 22.7 53 -13.3 8
16:00 1016 30 845 24.95 -4.7 23.5 51 -13.5 7.8
16:05 1016 30 845 24.95 -4.8 23.4 53 -12.9 8.7
16:10 1016 30 845 24.95 -4.9 23.2 52 -13.3 8.1
16:15 1016 30 845 24.95 -5 23 53 -13.1 8.5
16:20 1016 30 845 24.95 -4.8 23.4 52 -13.1 8.4
16:25 1016 30 845 24.95 -5.1 22.8 55 -12.8 8.9
16:30 1016 30 845 24.95 -5.8 21.5 57 -13.1 8.4
16:35 1016 30 845 24.95 -6.1 21 58 -13.2 8.3
16:40 1016 30 845 24.95 -6.1 21 57 -13.3 8
16:45 1016 30 845 24.95 -6.3 20.7 57 -13.4 7.9
16:50 1016 30 845 24.95 -6.7 19.9 60 -13.2 8.2
16:55 1016 30 845 24.95 -6.7 20 59 -13.4 8
17:00 1016 30 845 24.95 -6.4 20.5 58 -13.3 8
17:05 1016 30 845 24.95 -5.9 21.3 56 -13.3 8.1
17:10 1016 30 845 24.95 -5.9 21.4 56 -13.4 7.8
17:15 1016 30 845 24.95 -6.5 20.2 58 -13.5 7.7
17:20 1016 30 845 24.95 -6.7 19.9 60 -13.3 8.1
17:25 1016 30 845 24.95 -7.3 18.9 63 -13.2 8.2
17:30 1016 30 845 24.95 -7.6 18.2 63 -13.5 7.7
17:35 1016 30 845 24.95 -7.6 18.3 63 -13.5 7.8
17:40 1016 30 845 24.95 -7.6 18.3 64 -13.3 8
17:45 1016 30 845 24.95 -7.5 18.4 64 -13.2 8.2
17:50 1016 30 845 24.95 -7.4 18.6 63 -13.2 8.2
17:55 1016 30 845 24.95 -7.6 18.3 65 -13.2 8.3
18:00 1016 30 845 24.95 -7.8 18 64 -13.4 7.9
18:05 1016 30 845 24.95 -7.9 17.8 66 -13.2 8.2
18:10 1016 30 845 24.95 -8.1 17.4 66 -13.4 7.9
18:15 1016 30 845 24.95 -8.3 17 67 -13.5 7.7
18:20 1016 30 845 24.95 -8.4 16.9 66 -13.7 7.4
18:25 1016 30 845 24.95 -8.4 16.8 67 -13.5 7.6
18:30 1016 30 845 24.95 -8.5 16.7 67 -13.6 7.6
18:35 1016 30 845 24.95 -8.7 16.4 66 -13.9 6.9
18:40 1016 30 845 24.95 -8.8 16.2 67 -13.8 7.1
18:45 1016 30 845 24.95 -8.8 16.2 66 -14 6.8
18:50 1016 30 845 24.95 -8.9 16 67 -14 6.7
18:55 1016 30 845 24.95 -9.2 15.5 68 -14.1 6.6
19:00 1016 30 845 24.95 -9.5 15 69 -14.2 6.4
19:05 1016 30 845 24.95 -9.7 14.5 70 -14.2 6.4
19:10 1016 30 845 24.95 -10.1 13.8 72 -14.2 6.5
19:15 1015 29.97 845 24.95 -9.6 14.8 66 -14.7 5.5
19:20 1016 30 845 24.95 -9.6 14.7 68 -14.5 6
19:25 1016 30 845 24.95 -9.8 14.4 67 -14.8 5.4
19:30 1015 29.97 845 24.95 -9.8 14.3 67 -14.8 5.3
19:35 1015 29.97 845 24.95 -10 14.1 67 -14.9 5.2
19:40 1015 29.97 845 24.95 -10 14.1 68 -14.8 5.4
19:45 1015 29.97 845 24.95 -9.8 14.3 67 -14.9 5.2
19:50 1015 29.97 845 24.95 -9.8 14.4 66 -15 5
19:55 1015 29.97 845 24.95 -9.6 14.8 66 -14.8 5.3
20:00 1015 29.97 845 24.95 -9.4 15 64 -15.1 4.8
20:05 1015 29.97 845 24.95 -9.5 15 64 -15.1 4.8
20:10 1015 29.97 845 24.95 -9.7 14.5 65 -15.1 4.8
20:15 1016 30 845 24.95 -9.9 14.2 66 -15.2 4.6
20:20 1016 30 845 24.95 -9.9 14.2 65 -15.3 4.5
20:25 1015 29.97 845 24.95 -9.9 14.1 64 -15.5 4.2
20:30 1016 30 845 24.95 -10.2 13.7 64 -15.8 3.6
20:35 1016 30 845 24.95 -10.2 13.6 63 -15.9 3.3
20:40 1016 30 845 24.95 -10.2 13.7 63 -15.9 3.3
20:45 1016 30 845 24.95 -10.1 13.9 64 -15.7 3.7
20:50 1016 30 845 24.95 -10.2 13.6 65 -15.5 4
20:55 1016 30 845 24.95 -10.2 13.7 66 -15.5 4.2
21:00 1016 30 845 24.95 -10 14.1 65 -15.4 4.2
21:05 1016 30 845 24.95 -9.9 14.2 65 -15.4 4.3
21:10 1016 30 845 24.95 -9.9 14.3 64 -15.4 4.2
21:15 1016 30 845 24.95 -9.8 14.3 64 -15.5 4.1
21:20 1016 30 845 24.95 -9.9 14.1 63 -15.6 3.9
21:25 1015 29.97 845 24.95 -9.9 14.2 63 -15.7 3.7
21:30 1015 29.97 845 24.95 -9.7 14.6 62 -15.8 3.6
21:35 1015 29.97 845 24.95 -9.5 14.9 61 -15.6 3.8
21:40 1016 30 845 24.95 -9.4 15 61 -15.6 3.9
21:45 1015 29.97 845 24.95 -9.3 15.3 60 -15.7 3.8
21:50 1015 29.97 845 24.95 -9.1 15.6 58 -15.9 3.4
21:55 1015 29.97 845 24.95 -9.2 15.5 59 -15.7 3.7
22:00 1016 30 845 24.95 -9.1 15.7 59 -15.8 3.6
22:05 1016 30 845 24.95 -8.9 16 58 -15.8 3.6
22:10 1015 29.97 845 24.95 -8.8 16.1 58 -15.6 3.8
22:15 1015 29.97 845 24.95 -8.9 16.1 59 -15.6 4
22:20 1015 29.97 845 24.95 -8.9 16 58 -15.7 3.7
22:25 1015 29.97 845 24.95 -8.9 16 58 -15.8 3.6
22:30 1015 29.97 844 24.92 -9.1 15.7 59 -15.6 3.8
22:35 1015 29.97 844 24.92 -9.2 15.4 63 -15.1 4.9
22:40 1015 29.97 845 24.95 -9.8 14.5 65 -15.2 4.7
22:45 1015 29.97 845 24.95 -10.1 13.8 63 -15.8 3.6
22:50 1016 30 845 24.95 -10 14 63 -15.8 3.6
22:55 1015 29.97 845 24.95 -9.9 14.2 64 -15.4 4.2
23:00 1016 30 845 24.95 -10.1 13.8 65 -15.5 4.1
23:05 1016 30 845 24.95 -10.3 13.4 66 -15.6 3.9
23:10 1015 29.97 845 24.95 -10.5 13 67 -15.6 3.9
23:15 1016 30 845 24.95 -10.7 12.8 67 -15.7 3.8
23:20 1016 30 845 24.95 -11 12.3 68 -15.8 3.5
23:25 1016 30 845 24.95 -11.5 11.4 69 -16 3.2
23:30 1016 30 845 24.95 -11.6 11.1 70 -16.1 3
23:35 1016 30 845 24.95 -11 12.2 67 -16 3.1
23:40 1016 30 845 24.95 -10.8 12.5 66 -16 3.2
23:45 1016 30 845 24.95 -10.5 13 65 -15.9 3.3
23:50 1016 30 845 24.95 -10.3 13.4 63 -16 3.2
23:55 1016 30 845 24.95 -10.3 13.5 64 -15.9 3.4
24:00 1016 30 845 24.95 -10.7 12.8 65 -16 3.2